sensor_id;sensor_type;location;lat;lon;timestamp;pressure;altitude;pressure_sealevel;temperature;humidity
79075;BME280;68476;42.710;23.388;2023-04-01T00:01:57;94744.06;;;6.73;71.85
79075;BME280;68476;42.710;23.388;2023-04-01T00:04:22;94731.41;;;6.86;71.15
79075;BME280;68476;42.710;23.388;2023-04-01T00:06:48;94744.41;;;6.96;70.72
79075;BME280;68476;42.710;23.388;2023-04-01T00:09:13;94742.09;;;6.99;69.58
79075;BME280;68476;42.710;23.388;2023-04-01T00:11:39;94742.47;;;7.03;69.61
79075;BME280;68476;42.710;23.388;2023-04-01T00:14:06;94742.31;;;7.16;69.15
79075;BME280;68476;42.710;23.388;2023-04-01T00:16:32;94744.34;;;7.21;68.55
79075;BME280;68476;42.710;23.388;2023-04-01T00:18:58;94743.38;;;7.15;68.96
79075;BME280;68476;42.710;23.388;2023-04-01T00:21:23;94742.22;;;7.23;69.11
79075;BME280;68476;42.710;23.388;2023-04-01T00:23:52;94739.72;;;7.21;69.37
79075;BME280;68476;42.710;23.388;2023-04-01T00:26:18;94740.06;;;7.13;70.39
79075;BME280;68476;42.710;23.388;2023-04-01T00:28:46;94744.56;;;7.01;71.02
79075;BME280;68476;42.710;23.388;2023-04-01T00:31:12;94743.38;;;6.78;71.37
79075;BME280;68476;42.710;23.388;2023-04-01T00:33:38;94737.94;;;6.59;72.48
79075;BME280;68476;42.710;23.388;2023-04-01T00:36:16;94738.53;;;6.61;72.27
79075;BME280;68476;42.710;23.388;2023-04-01T00:38:43;94736.59;;;6.50;72.16
79075;BME280;68476;42.710;23.388;2023-04-01T00:41:10;94743.88;;;6.50;72.41
79075;BME280;68476;42.710;23.388;2023-04-01T00:43:39;94723.88;;;6.69;71.60
79075;BME280;68476;42.710;23.388;2023-04-01T00:46:05;94717.78;;;6.74;71.28
79075;BME280;68476;42.710;23.388;2023-04-01T00:48:33;94708.19;;;6.78;70.78
79075;BME280;68476;42.710;23.388;2023-04-01T00:51:07;94704.34;;;6.86;70.17
79075;BME280;68476;42.710;23.388;2023-04-01T00:53:35;94696.91;;;6.81;70.52
79075;BME280;68476;42.710;23.388;2023-04-01T00:56:10;94697.03;;;6.86;69.61
79075;BME280;68476;42.710;23.388;2023-04-01T00:58:40;94691.69;;;6.98;69.16
79075;BME280;68476;42.710;23.388;2023-04-01T01:01:08;94695.50;;;7.09;69.12
79075;BME280;68476;42.710;23.388;2023-04-01T01:03:34;94683.50;;;7.17;68.04
79075;BME280;68476;42.710;23.388;2023-04-01T01:06:39;94680.00;;;7.16;68.29
79075;BME280;68476;42.710;23.388;2023-04-01T01:23:14;94667.03;;;6.88;70.89
79075;BME280;68476;42.710;23.388;2023-04-01T01:37:12;94656.28;;;6.62;71.13
79075;BME280;68476;42.710;23.388;2023-04-01T01:39:39;94646.56;;;6.73;70.97
79075;BME280;68476;42.710;23.388;2023-04-01T01:42:09;94641.84;;;6.69;70.61
79075;BME280;68476;42.710;23.388;2023-04-01T01:44:37;94638.75;;;6.65;70.55
79075;BME280;68476;42.710;23.388;2023-04-01T01:47:03;94651.31;;;6.59;70.85
79075;BME280;68476;42.710;23.388;2023-04-01T01:49:31;94638.53;;;6.67;69.97
79075;BME280;68476;42.710;23.388;2023-04-01T01:51:58;94633.69;;;6.87;69.09
79075;BME280;68476;42.710;23.388;2023-04-01T01:54:24;94626.84;;;6.85;68.76
79075;BME280;68476;42.710;23.388;2023-04-01T01:56:53;94631.94;;;6.93;68.10
79075;BME280;68476;42.710;23.388;2023-04-01T01:59:22;94615.09;;;6.91;68.26
79075;BME280;68476;42.710;23.388;2023-04-01T02:01:51;94633.00;;;6.92;67.86
79075;BME280;68476;42.710;23.388;2023-04-01T02:04:18;94629.16;;;7.00;67.69
79075;BME280;68476;42.710;23.388;2023-04-01T02:06:50;94622.22;;;7.04;66.83
79075;BME280;68476;42.710;23.388;2023-04-01T02:09:18;94620.00;;;7.13;67.36
79075;BME280;68476;42.710;23.388;2023-04-01T02:11:53;94632.00;;;7.05;67.18
79075;BME280;68476;42.710;23.388;2023-04-01T02:14:22;94619.03;;;7.07;66.95
79075;BME280;68476;42.710;23.388;2023-04-01T02:19:24;94609.25;;;7.06;67.16
79075;BME280;68476;42.710;23.388;2023-04-01T02:21:56;94612.09;;;6.81;68.37
79075;BME280;68476;42.710;23.388;2023-04-01T02:24:23;94613.25;;;6.73;68.61
79075;BME280;68476;42.710;23.388;2023-04-01T02:26:51;94609.81;;;6.66;69.59
79075;BME280;68476;42.710;23.388;2023-04-01T02:29:21;94598.41;;;6.45;70.32
79075;BME280;68476;42.710;23.388;2023-04-01T02:31:49;94608.09;;;6.34;71.29
79075;BME280;68476;42.710;23.388;2023-04-01T02:34:15;94598.41;;;6.45;70.69
79075;BME280;68476;42.710;23.388;2023-04-01T02:36:41;94608.31;;;6.51;70.15
79075;BME280;68476;42.710;23.388;2023-04-01T02:39:07;94611.22;;;6.68;69.41
79075;BME280;68476;42.710;23.388;2023-04-01T02:41:41;94609.94;;;6.71;68.99
79075;BME280;68476;42.710;23.388;2023-04-01T02:44:07;94612.44;;;6.72;69.30
79075;BME280;68476;42.710;23.388;2023-04-01T02:46:33;94630.72;;;6.40;71.54
79075;BME280;68476;42.710;23.388;2023-04-01T02:48:58;94632.06;;;6.49;70.70
79075;BME280;68476;42.710;23.388;2023-04-01T02:51:25;94633.81;;;6.62;71.30
79075;BME280;68476;42.710;23.388;2023-04-01T02:53:51;94624.31;;;6.53;71.75
79075;BME280;68476;42.710;23.388;2023-04-01T02:56:16;94636.88;;;6.47;72.30
79075;BME280;68476;42.710;23.388;2023-04-01T02:58:42;94646.44;;;6.31;72.37
79075;BME280;68476;42.710;23.388;2023-04-01T03:01:08;94649.81;;;6.08;73.13
79075;BME280;68476;42.710;23.388;2023-04-01T03:03:33;94645.97;;;6.15;72.63
79075;BME280;68476;42.710;23.388;2023-04-01T03:06:07;94646.97;;;6.21;72.04
79075;BME280;68476;42.710;23.388;2023-04-01T03:08:33;94642.75;;;6.25;72.51
79075;BME280;68476;42.710;23.388;2023-04-01T03:10:58;94646.97;;;6.21;72.05
79075;BME280;68476;42.710;23.388;2023-04-01T03:13:24;94644.03;;;6.04;72.68
79075;BME280;68476;42.710;23.388;2023-04-01T03:15:49;94637.84;;;5.90;73.76
79075;BME280;68476;42.710;23.388;2023-04-01T03:18:15;94636.41;;;6.13;72.11
79075;BME280;68476;42.710;23.388;2023-04-01T03:20:40;94644.69;;;6.18;72.02
79075;BME280;68476;42.710;23.388;2023-04-01T03:23:07;94630.06;;;6.26;71.88
79075;BME280;68476;42.710;23.388;2023-04-01T03:25:32;94645.00;;;6.28;71.39
79075;BME280;68476;42.710;23.388;2023-04-01T03:27:58;94657.69;;;6.09;72.54
79075;BME280;68476;42.710;23.388;2023-04-01T03:30:25;94654.59;;;6.06;73.74
79075;BME280;68476;42.710;23.388;2023-04-01T03:32:51;94654.78;;;6.11;72.78
79075;BME280;68476;42.710;23.388;2023-04-01T03:35:16;94664.84;;;6.22;72.63
79075;BME280;68476;42.710;23.388;2023-04-01T03:37:42;94663.34;;;6.26;72.68
79075;BME280;68476;42.710;23.388;2023-04-01T03:40:08;94652.88;;;6.30;72.50
79075;BME280;68476;42.710;23.388;2023-04-01T03:42:34;94664.31;;;6.32;73.38
79075;BME280;68476;42.710;23.388;2023-04-01T03:45:00;94659.38;;;6.47;72.53
79075;BME280;68476;42.710;23.388;2023-04-01T03:47:26;94644.19;;;6.46;73.14
79075;BME280;68476;42.710;23.388;2023-04-01T03:49:51;94634.94;;;6.54;73.67
79075;BME280;68476;42.710;23.388;2023-04-01T03:52:16;94634.63;;;6.44;75.92
79075;BME280;68476;42.710;23.388;2023-04-01T03:54:42;94603.81;;;6.26;75.00
79075;BME280;68476;42.710;23.388;2023-04-01T03:57:07;94593.69;;;6.40;76.42
79075;BME280;68476;42.710;23.388;2023-04-01T03:59:33;94588.03;;;6.42;75.88
79075;BME280;68476;42.710;23.388;2023-04-01T04:01:59;94579.63;;;6.31;76.76
79075;BME280;68476;42.710;23.388;2023-04-01T04:04:25;94564.13;;;6.39;77.88
79075;BME280;68476;42.710;23.388;2023-04-01T04:06:51;94558.34;;;6.35;76.53
79075;BME280;68476;42.710;23.388;2023-04-01T04:09:16;94551.72;;;6.31;76.53
79075;BME280;68476;42.710;23.388;2023-04-01T04:11:41;94549.63;;;6.33;77.59
79075;BME280;68476;42.710;23.388;2023-04-01T04:14:07;94546.69;;;6.16;78.17
79075;BME280;68476;42.710;23.388;2023-04-01T04:16:34;94544.16;;;6.21;77.45
79075;BME280;68476;42.710;23.388;2023-04-01T04:19:02;94534.91;;;6.29;77.17
79075;BME280;68476;42.710;23.388;2023-04-01T04:21:27;94534.44;;;6.32;76.01
79075;BME280;68476;42.710;23.388;2023-04-01T04:23:53;94529.88;;;6.32;75.81
79075;BME280;68476;42.710;23.388;2023-04-01T04:26:18;94526.16;;;6.45;75.25
79075;BME280;68476;42.710;23.388;2023-04-01T04:28:44;94518.53;;;6.54;74.44
79075;BME280;68476;42.710;23.388;2023-04-01T04:31:09;94509.47;;;6.60;74.09
79075;BME280;68476;42.710;23.388;2023-04-01T04:33:35;94498.56;;;6.67;73.80
79075;BME280;68476;42.710;23.388;2023-04-01T04:36:01;94494.59;;;6.70;73.51
79075;BME280;68476;42.710;23.388;2023-04-01T04:38:26;94501.75;;;6.64;73.26
79075;BME280;68476;42.710;23.388;2023-04-01T04:40:52;94488.06;;;6.59;73.65
79075;BME280;68476;42.710;23.388;2023-04-01T04:43:18;94491.28;;;6.68;72.84
79075;BME280;68476;42.710;23.388;2023-04-01T04:45:44;94487.03;;;6.72;73.58
79075;BME280;68476;42.710;23.388;2023-04-01T04:48:14;94486.78;;;6.61;74.78
79075;BME280;68476;42.710;23.388;2023-04-01T04:50:43;94490.91;;;6.64;73.80
79075;BME280;68476;42.710;23.388;2023-04-01T04:53:10;94492.25;;;6.85;72.75
79075;BME280;68476;42.710;23.388;2023-04-01T04:55:37;94479.56;;;6.98;72.04
79075;BME280;68476;42.710;23.388;2023-04-01T04:58:03;94468.72;;;6.98;72.38
79075;BME280;68476;42.710;23.388;2023-04-01T05:00:28;94462.84;;;7.01;72.28
79075;BME280;68476;42.710;23.388;2023-04-01T05:02:53;94464.03;;;7.05;71.37
79075;BME280;68476;42.710;23.388;2023-04-01T05:05:19;94467.91;;;7.09;71.30
79075;BME280;68476;42.710;23.388;2023-04-01T05:07:44;94468.63;;;7.04;71.57
79075;BME280;68476;42.710;23.388;2023-04-01T05:10:10;94463.09;;;6.99;71.27
79075;BME280;68476;42.710;23.388;2023-04-01T05:12:35;94459.53;;;6.99;71.11
79075;BME280;68476;42.710;23.388;2023-04-01T05:15:07;94448.81;;;6.92;71.68
79075;BME280;68476;42.710;23.388;2023-04-01T05:17:33;94450.56;;;6.86;72.44
79075;BME280;68476;42.710;23.388;2023-04-01T05:19:58;94445.41;;;6.85;71.27
79075;BME280;68476;42.710;23.388;2023-04-01T05:22:24;94440.94;;;6.90;71.32
79075;BME280;68476;42.710;23.388;2023-04-01T05:24:50;94448.59;;;7.05;69.81
79075;BME280;68476;42.710;23.388;2023-04-01T05:27:15;94438.94;;;7.21;69.02
79075;BME280;68476;42.710;23.388;2023-04-01T05:29:40;94426.22;;;7.22;69.84
79075;BME280;68476;42.710;23.388;2023-04-01T05:32:06;94422.00;;;7.14;70.62
79075;BME280;68476;42.710;23.388;2023-04-01T05:34:31;94425.84;;;7.18;70.38
79075;BME280;68476;42.710;23.388;2023-04-01T05:36:57;94433.28;;;7.35;69.88
79075;BME280;68476;42.710;23.388;2023-04-01T05:39:22;94441.75;;;7.38;69.39
79075;BME280;68476;42.710;23.388;2023-04-01T05:41:48;94446.25;;;7.45;68.38
79075;BME280;68476;42.710;23.388;2023-04-01T05:44:14;94438.69;;;7.47;68.33
79075;BME280;68476;42.710;23.388;2023-04-01T05:46:39;94435.28;;;7.51;68.62
79075;BME280;68476;42.710;23.388;2023-04-01T05:49:05;94431.84;;;7.56;67.66
79075;BME280;68476;42.710;23.388;2023-04-01T05:51:30;94425.47;;;7.62;67.52
79075;BME280;68476;42.710;23.388;2023-04-01T05:53:55;94429.53;;;7.89;66.57
79075;BME280;68476;42.710;23.388;2023-04-01T05:56:21;94418.81;;;8.23;65.37
79075;BME280;68476;42.710;23.388;2023-04-01T05:58:50;94419.38;;;8.25;65.73
79075;BME280;68476;42.710;23.388;2023-04-01T06:01:16;94409.88;;;8.68;64.92
79075;BME280;68476;42.710;23.388;2023-04-01T06:03:41;94406.09;;;9.20;63.68
79075;BME280;68476;42.710;23.388;2023-04-01T06:06:24;94405.56;;;9.23;63.69
79075;BME280;68476;42.710;23.388;2023-04-01T06:08:52;94402.00;;;9.40;63.17
79075;BME280;68476;42.710;23.388;2023-04-01T06:14:16;94401.19;;;10.01;60.93
79075;BME280;68476;42.710;23.388;2023-04-01T06:17:43;94406.22;;;9.92;62.73
79075;BME280;68476;42.710;23.388;2023-04-01T06:20:03;94403.50;;;9.92;64.09
79075;BME280;68476;42.710;23.388;2023-04-01T06:31:47;94411.69;;;10.97;59.92
79075;BME280;68476;42.710;23.388;2023-04-01T06:53:23;94378.13;;;11.29;58.57
79075;BME280;68476;42.710;23.388;2023-04-01T06:56:02;94360.25;;;11.53;57.82
79075;BME280;68476;42.710;23.388;2023-04-01T06:58:34;94349.78;;;11.35;59.10
79075;BME280;68476;42.710;23.388;2023-04-01T07:01:04;94343.97;;;11.64;59.04
79075;BME280;68476;42.710;23.388;2023-04-01T07:03:42;94335.16;;;11.56;59.50
79075;BME280;68476;42.710;23.388;2023-04-01T07:06:14;94338.03;;;11.82;58.61
79075;BME280;68476;42.710;23.388;2023-04-01T07:08:44;94349.88;;;12.04;58.13
79075;BME280;68476;42.710;23.388;2023-04-01T07:11:22;94351.84;;;12.29;56.08
79075;BME280;68476;42.710;23.388;2023-04-01T07:13:54;94331.66;;;12.51;54.28
79075;BME280;68476;42.710;23.388;2023-04-01T07:16:25;94339.06;;;12.76;53.43
79075;BME280;68476;42.710;23.388;2023-04-01T07:24:10;94316.09;;;13.03;52.44
79075;BME280;68476;42.710;23.388;2023-04-01T07:26:37;94333.56;;;13.12;52.68
79075;BME280;68476;42.710;23.388;2023-04-01T07:29:08;94327.84;;;13.14;52.12
79075;BME280;68476;42.710;23.388;2023-04-01T07:34:12;94325.06;;;13.29;50.50
79075;BME280;68476;42.710;23.388;2023-04-01T07:39:55;94325.81;;;13.71;48.96
79075;BME280;68476;42.710;23.388;2023-04-01T07:45:19;94327.19;;;13.68;48.42
79075;BME280;68476;42.710;23.388;2023-04-01T07:53:37;94317.09;;;13.59;51.34
79075;BME280;68476;42.710;23.388;2023-04-01T07:56:10;94310.81;;;13.58;50.89
79075;BME280;68476;42.710;23.388;2023-04-01T08:06:54;94304.09;;;13.90;50.47
79075;BME280;68476;42.710;23.388;2023-04-01T08:20:27;94278.22;;;14.17;47.26
79075;BME280;68476;42.710;23.388;2023-04-01T08:23:00;94255.59;;;14.41;46.77
79075;BME280;68476;42.710;23.388;2023-04-01T08:25:30;94245.28;;;14.62;45.95
79075;BME280;68476;42.710;23.388;2023-04-01T08:30:47;94248.22;;;14.76;45.58
79075;BME280;68476;42.710;23.388;2023-04-01T08:33:21;94252.47;;;14.92;45.72
79075;BME280;68476;42.710;23.388;2023-04-01T08:36:03;94231.19;;;15.33;44.11
79075;BME280;68476;42.710;23.388;2023-04-01T08:38:52;94225.81;;;15.22;42.81
79075;BME280;68476;42.710;23.388;2023-04-01T08:47:19;94200.03;;;14.64;42.92
79075;BME280;68476;42.710;23.388;2023-04-01T08:52:21;94182.81;;;15.80;42.45
79075;BME280;68476;42.710;23.388;2023-04-01T09:13:25;94189.25;;;16.66;37.20
79075;BME280;68476;42.710;23.388;2023-04-01T09:25:48;94185.91;;;16.69;37.33
79075;BME280;68476;42.710;23.388;2023-04-01T09:29:16;94184.53;;;16.67;35.98
79075;BME280;68476;42.710;23.388;2023-04-01T09:37:01;94168.16;;;16.75;37.95
79075;BME280;68476;42.710;23.388;2023-04-01T09:48:05;94146.00;;;15.81;40.18
79075;BME280;68476;42.710;23.388;2023-04-01T10:04:30;94110.16;;;15.92;41.52
79075;BME280;68476;42.710;23.388;2023-04-01T10:09:58;94104.69;;;15.92;41.19
79075;BME280;68476;42.710;23.388;2023-04-01T10:18:25;94100.84;;;16.07;41.40
79075;BME280;68476;42.710;23.388;2023-04-01T10:24:18;94093.28;;;15.79;40.21
79075;BME280;68476;42.710;23.388;2023-04-01T10:47:56;94071.41;;;15.36;41.13
79075;BME280;68476;42.710;23.388;2023-04-01T10:50:22;94066.88;;;15.26;41.42
79075;BME280;68476;42.710;23.388;2023-04-01T11:01:34;94044.31;;;15.10;40.46
79075;BME280;68476;42.710;23.388;2023-04-01T11:10:17;94031.31;;;14.97;41.13
79075;BME280;68476;42.710;23.388;2023-04-01T11:21:46;94034.53;;;15.04;41.54
79075;BME280;68476;42.710;23.388;2023-04-01T11:32:45;94045.94;;;14.92;41.97
79075;BME280;68476;42.710;23.388;2023-04-01T11:38:14;94090.81;;;14.77;42.34
79075;BME280;68476;42.710;23.388;2023-04-01T11:41:00;94106.50;;;14.66;41.79
79075;BME280;68476;42.710;23.388;2023-04-01T11:43:39;94147.00;;;12.13;53.94
79075;BME280;68476;42.710;23.388;2023-04-01T11:46:17;94195.31;;;11.08;65.10
79075;BME280;68476;42.710;23.388;2023-04-01T12:02:11;62572.91;;;-149.01;100.00
79075;BME280;68476;42.710;23.388;2023-04-01T12:18:50;62572.91;;;-149.01;100.00
79075;BME280;68476;42.710;23.388;2023-04-01T12:21:24;62572.91;;;-149.01;100.00
79075;BME280;68476;42.710;23.388;2023-04-01T12:34:39;62572.91;;;-149.01;100.00
79075;BME280;68476;42.710;23.388;2023-04-01T12:37:26;62572.91;;;-149.01;100.00
79075;BME280;68476;42.710;23.388;2023-04-01T12:40:14;62572.91;;;-149.01;100.00
79075;BME280;68476;42.710;23.388;2023-04-01T12:45:32;62572.91;;;-149.01;100.00
79075;BME280;68476;42.710;23.388;2023-04-01T13:10:50;62572.91;;;-149.01;100.00
79075;BME280;68476;42.710;23.388;2023-04-01T13:16:26;62572.91;;;-149.01;100.00
79075;BME280;68476;42.710;23.388;2023-04-01T13:19:01;62572.91;;;-149.01;100.00
79075;BME280;68476;42.710;23.388;2023-04-01T13:27:53;62572.91;;;-149.01;100.00
79075;BME280;68476;42.710;23.388;2023-04-01T13:30:30;62572.91;;;-149.01;100.00
79075;BME280;68476;42.710;23.388;2023-04-01T13:38:52;62572.91;;;-149.01;100.00
79075;BME280;68476;42.710;23.388;2023-04-01T13:52:25;62572.91;;;-149.01;100.00
79075;BME280;68476;42.710;23.388;2023-04-01T14:08:29;62572.91;;;-149.01;100.00
79075;BME280;68476;42.710;23.388;2023-04-01T14:19:01;62572.91;;;-149.01;100.00
79075;BME280;68476;42.710;23.388;2023-04-01T14:21:41;62572.91;;;-149.01;100.00
79075;BME280;68476;42.710;23.388;2023-04-01T14:38:01;62572.91;;;-149.01;100.00
79075;BME280;68476;42.710;23.388;2023-04-01T14:40:39;62572.91;;;-149.01;100.00
79075;BME280;68476;42.710;23.388;2023-04-01T14:48:30;62572.91;;;-149.01;100.00
79075;BME280;68476;42.710;23.388;2023-04-01T14:54:30;62572.91;;;-149.01;100.00
79075;BME280;68476;42.710;23.388;2023-04-01T14:57:15;62572.91;;;-149.01;100.00
79075;BME280;68476;42.710;23.388;2023-04-01T15:00:39;62572.91;;;-149.01;100.00
79075;BME280;68476;42.710;23.388;2023-04-01T15:02:57;62572.91;;;-149.01;100.00
79075;BME280;68476;42.710;23.388;2023-04-01T15:05:49;62572.91;;;-149.01;100.00
79075;BME280;68476;42.710;23.388;2023-04-01T15:11:15;62572.91;;;-149.01;100.00
79075;BME280;68476;42.710;23.388;2023-04-01T15:24:26;62572.91;;;-149.01;100.00
79075;BME280;68476;42.710;23.388;2023-04-01T15:38:51;62572.91;;;-149.01;100.00
79075;BME280;68476;42.710;23.388;2023-04-01T15:46:57;62572.91;;;-149.01;100.00
79075;BME280;68476;42.710;23.388;2023-04-01T15:52:07;62572.91;;;-149.01;100.00
79075;BME280;68476;42.710;23.388;2023-04-01T16:19:55;62572.91;;;-149.01;100.00
79075;BME280;68476;42.710;23.388;2023-04-01T16:22:56;62572.91;;;-149.01;100.00
79075;BME280;68476;42.710;23.388;2023-04-01T16:25:40;62572.91;;;-149.01;100.00
79075;BME280;68476;42.710;23.388;2023-04-01T16:28:15;62572.91;;;-149.01;100.00
79075;BME280;68476;42.710;23.388;2023-04-01T16:31:07;62572.91;;;-149.01;100.00
79075;BME280;68476;42.710;23.388;2023-04-01T16:36:48;62572.91;;;-149.01;100.00
79075;BME280;68476;42.710;23.388;2023-04-01T16:41:51;62572.91;;;-149.01;100.00
79075;BME280;68476;42.710;23.388;2023-04-01T16:44:23;62572.91;;;-149.01;100.00
79075;BME280;68476;42.710;23.388;2023-04-01T16:46:53;62572.91;;;-149.01;100.00
79075;BME280;68476;42.710;23.388;2023-04-01T16:49:39;62572.91;;;-149.01;100.00
79075;BME280;68476;42.710;23.388;2023-04-01T16:57:43;62572.91;;;-149.01;100.00
79075;BME280;68476;42.710;23.388;2023-04-01T17:00:30;62572.91;;;-149.01;100.00
79075;BME280;68476;42.710;23.388;2023-04-01T17:11:16;62572.91;;;-149.01;100.00
79075;BME280;68476;42.710;23.388;2023-04-01T17:32:39;62572.91;;;-149.01;100.00
79075;BME280;68476;42.710;23.388;2023-04-01T17:35:33;62572.91;;;-149.01;100.00
79075;BME280;68476;42.710;23.388;2023-04-01T17:41:09;62572.91;;;-149.01;100.00
79075;BME280;68476;42.710;23.388;2023-04-01T17:52:58;62572.91;;;-149.01;100.00
79075;BME280;68476;42.710;23.388;2023-04-01T18:00:51;62572.91;;;-149.01;100.00
79075;BME280;68476;42.710;23.388;2023-04-01T18:03:57;62572.91;;;-149.01;100.00
79075;BME280;68476;42.710;23.388;2023-04-01T18:06:45;62572.91;;;-149.01;100.00
79075;BME280;68476;42.710;23.388;2023-04-01T18:09:36;62572.91;;;-149.01;100.00
79075;BME280;68476;42.710;23.388;2023-04-01T18:12:25;62572.91;;;-149.01;100.00
79075;BME280;68476;42.710;23.388;2023-04-01T18:15:19;62572.91;;;-149.01;100.00
79075;BME280;68476;42.710;23.388;2023-04-01T18:21:08;62572.91;;;-149.01;100.00
79075;BME280;68476;42.710;23.388;2023-04-01T18:23:51;62572.91;;;-149.01;100.00
79075;BME280;68476;42.710;23.388;2023-04-01T18:26:24;62572.91;;;-149.01;100.00
79075;BME280;68476;42.710;23.388;2023-04-01T18:28:54;62572.91;;;-149.01;100.00
79075;BME280;68476;42.710;23.388;2023-04-01T18:31:24;62572.91;;;-149.01;100.00
79075;BME280;68476;42.710;23.388;2023-04-01T18:36:37;62572.91;;;-149.01;100.00
79075;BME280;68476;42.710;23.388;2023-04-01T18:41:55;62572.91;;;-149.01;100.00
79075;BME280;68476;42.710;23.388;2023-04-01T18:52:40;62572.91;;;-149.01;100.00
79075;BME280;68476;42.710;23.388;2023-04-01T19:01:34;62572.91;;;-149.01;100.00
79075;BME280;68476;42.710;23.388;2023-04-01T19:07:01;62572.91;;;-149.01;100.00
79075;BME280;68476;42.710;23.388;2023-04-01T19:09:33;62572.91;;;-149.01;100.00
79075;BME280;68476;42.710;23.388;2023-04-01T19:25:38;62572.91;;;-149.01;100.00
79075;BME280;68476;42.710;23.388;2023-04-01T19:33:48;62572.91;;;-149.01;100.00
79075;BME280;68476;42.710;23.388;2023-04-01T19:36:35;62572.91;;;-149.01;100.00
79075;BME280;68476;42.710;23.388;2023-04-01T19:42:20;62572.91;;;-149.01;100.00
79075;BME280;68476;42.710;23.388;2023-04-01T19:48:48;62572.91;;;-149.01;100.00
79075;BME280;68476;42.710;23.388;2023-04-01T19:56:22;62572.91;;;-149.01;100.00
79075;BME280;68476;42.710;23.388;2023-04-01T20:01:45;62572.91;;;-149.01;100.00
79075;BME280;68476;42.710;23.388;2023-04-01T20:07:04;62572.91;;;-149.01;100.00
79075;BME280;68476;42.710;23.388;2023-04-01T20:15:00;62572.91;;;-149.01;100.00
79075;BME280;68476;42.710;23.388;2023-04-01T20:17:41;62572.91;;;-149.01;100.00
79075;BME280;68476;42.710;23.388;2023-04-01T20:50:50;62572.91;;;-149.01;100.00
79075;BME280;68476;42.710;23.388;2023-04-01T21:15:27;62572.91;;;-149.01;100.00
79075;BME280;68476;42.710;23.388;2023-04-01T21:21:05;62572.91;;;-149.01;100.00
79075;BME280;68476;42.710;23.388;2023-04-01T21:34:31;62572.91;;;-149.01;100.00
79075;BME280;68476;42.710;23.388;2023-04-01T22:05:20;62572.91;;;-149.01;100.00
79075;BME280;68476;42.710;23.388;2023-04-01T22:13:32;62572.91;;;-149.01;100.00
79075;BME280;68476;42.710;23.388;2023-04-01T22:16:14;62572.91;;;-149.01;100.00
79075;BME280;68476;42.710;23.388;2023-04-01T22:18:46;62572.91;;;-149.01;100.00
79075;BME280;68476;42.710;23.388;2023-04-01T22:21:36;62572.91;;;-149.01;100.00
79075;BME280;68476;42.710;23.388;2023-04-01T22:29:23;62572.91;;;-149.01;100.00
79075;BME280;68476;42.710;23.388;2023-04-01T22:32:06;62572.91;;;-149.01;100.00
79075;BME280;68476;42.710;23.388;2023-04-01T22:42:58;62572.91;;;-149.01;100.00
79075;BME280;68476;42.710;23.388;2023-04-01T22:51:38;62572.91;;;-149.01;100.00
79075;BME280;68476;42.710;23.388;2023-04-01T22:56:53;62572.91;;;-149.01;100.00
79075;BME280;68476;42.710;23.388;2023-04-01T23:02:21;62572.91;;;-149.01;100.00
79075;BME280;68476;42.710;23.388;2023-04-01T23:04:54;62572.91;;;-149.01;100.00
79075;BME280;68476;42.710;23.388;2023-04-01T23:07:33;62572.91;;;-149.01;100.00
79075;BME280;68476;42.710;23.388;2023-04-01T23:10:17;62572.91;;;-149.01;100.00
79075;BME280;68476;42.710;23.388;2023-04-01T23:12:45;62572.91;;;-149.01;100.00
79075;BME280;68476;42.710;23.388;2023-04-01T23:15:14;62572.91;;;-149.01;100.00
79075;BME280;68476;42.710;23.388;2023-04-01T23:20:52;62572.91;;;-149.01;100.00
79075;BME280;68476;42.710;23.388;2023-04-01T23:23:57;62572.91;;;-149.01;100.00
79075;BME280;68476;42.710;23.388;2023-04-01T23:26:50;62572.91;;;-149.01;100.00
79075;BME280;68476;42.710;23.388;2023-04-01T23:29:19;62572.91;;;-149.01;100.00
79075;BME280;68476;42.710;23.388;2023-04-01T23:31:59;62572.91;;;-149.01;100.00
79075;BME280;68476;42.710;23.388;2023-04-01T23:34:35;62572.91;;;-149.01;100.00
79075;BME280;68476;42.710;23.388;2023-04-01T23:37:07;62572.91;;;-149.01;100.00
79075;BME280;68476;42.710;23.388;2023-04-01T23:39:38;62572.91;;;-149.01;100.00
79075;BME280;68476;42.710;23.388;2023-04-01T23:42:24;62572.91;;;-149.01;100.00
79075;BME280;68476;42.710;23.388;2023-04-01T23:44:54;62572.91;;;-149.01;100.00
79075;BME280;68476;42.710;23.388;2023-04-01T23:47:24;62572.91;;;-149.01;100.00
79075;BME280;68476;42.710;23.388;2023-04-01T23:49:57;62572.91;;;-149.01;100.00
79075;BME280;68476;42.710;23.388;2023-04-01T23:52:25;62572.91;;;-149.01;100.00
79075;BME280;68476;42.710;23.388;2023-04-01T23:57:27;62572.91;;;-149.01;100.00
